Accueil
METAR-TAF:

METAR-TAF

Aéroports :

Aéroport de Rijeka

Rijeka, Croatie

latitude: 45-13N, longitude: 014-35E, altitude: 85 m

Observation

Le bulletin a été fait il y a 29 minutes, à 03:30 UTC
Vent 4 kt de nord/nord-est, variant entre nord/nord-ouest et est
Température 5°C
Humidité 48%
Pression 1021 hPa
Visibilité 10 km ou plus
pas de nuages en-dessous de 1500 mètres et pas de cumulonimbus.

METAR: LDRI 300330Z 03004KT 330V090 CAVOK 05/M05 Q1021

Heure: 04:59 (03:59 UTC)

Prévision

Le bulletin a été fait il y a 4 heures et 34 minutes, à 23:25 UTC
Prévision valable du 30 à 00 UTC au 01 à 00 UTC
Vent 9 kt de est/nord-est
Visibilité 10 km ou plus
pas de nuages en-dessous de 1500 mètres et pas de cumulonimbus.
Temporairement
du 30 à 00 UTC au 30 à 12 UTC
Vent 8 kt de direction variable

TAF: LDRI 292325Z 3000/0100 06009KT CAVOK TX10/3012Z TN02/3023Z TEMPO 3000/3012 VRB08KT

Observations et prévisions météorologiques de plus de 4000 aéroports (messages METAR et TAF).

Les stations disponibles sont représentées par des disques jaunes et rouges sur la carte.

Passer la souris dessus pour voir le nom de la station.

Cliquer dessus pour voir les observations et prévisions météorologiques.

Pour changer de carte: cliquez sur les boutons verts avec une croix noire pour zoomer, sur le bouton vert avec un tiret pour effectuer un zoom arrière, ou sur les flèches vertes pour les cartes adjacentes.


METAR-TAF: